Time;durP1;ratioP1;P1;durP2;ratioP2;P2;SDS_P1;SDS_P2;PMS_P1;PMS_P2;Temp;Humidity;BMP_temperature;BMP_pressure;BME280_temperature;BME280_humidity;BME280_pressure;Samples;Min_cycle;Max_cycle;Signal;HPM_P1;HPM_P2
2021/07/04 00:00:42;;;;;;;17.85;12.53;;;;;;;14.90;89.01;97772.23;1726615;82;20890;-81
2021/07/04 00:03:10;;;;;;;20.27;13.45;;;;;;;14.83;89.37;97779.25;1726389;82;20931;-78
2021/07/04 00:05:44;;;;;;;17.12;13.05;;;;;;;14.81;90.92;97782.30;1706168;83;20963;-78
2021/07/04 00:08:13;;;;;;;20.70;13.00;;;;;;;14.83;89.51;97776.53;1726796;83;21459;-78
2021/07/04 00:10:44;;;;;;;18.92;13.85;;;;;;;14.78;89.39;97773.92;1726443;82;20919;-78
2021/07/04 00:13:11;;;;;;;18.30;11.68;;;;;;;14.78;89.32;97773.92;1726138;83;20955;-78
2021/07/04 00:15:40;;;;;;;20.65;11.93;;;;;;;14.75;89.08;97778.09;1730600;82;20923;-79
2021/07/04 00:18:13;;;;;;;21.05;12.88;;;;;;;14.67;89.16;97770.09;1726498;80;20944;-78
2021/07/04 00:20:39;;;;;;;21.40;14.38;;;;;;;14.61;90.53;97769.17;1727102;82;21153;-81
2021/07/04 00:23:06;;;;;;;21.42;12.50;;;;;;;14.60;90.26;97770.30;1726434;83;21427;-81
2021/07/04 00:25:32;;;;;;;21.82;14.10;;;;;;;14.60;90.88;97771.09;1726443;82;21109;-78
2021/07/04 00:27:58;;;;;;;19.20;12.05;;;;;;;14.61;91.01;97782.81;1726220;83;21066;-78
2021/07/04 00:30:24;;;;;;;17.67;12.60;;;;;;;14.64;90.39;97778.11;1726563;82;20994;-81
2021/07/04 00:32:50;;;;;;;15.83;11.80;;;;;;;14.57;90.50;97774.45;1725954;83;21316;-81
2021/07/04 00:35:17;;;;;;;24.52;11.63;;;;;;;14.50;90.95;97778.73;1726310;83;21493;-80
2021/07/04 00:37:44;;;;;;;15.32;11.33;;;;;;;14.46;90.96;97777.76;1726980;82;20979;-81
2021/07/04 00:40:11;;;;;;;16.95;12.00;;;;;;;14.40;90.84;97779.77;1727706;82;20930;-78
2021/07/04 00:42:37;;;;;;;15.00;9.88;;;;;;;14.35;91.46;97773.86;1725974;83;20998;-78
2021/07/04 00:45:10;;;;;;;14.43;10.75;;;;;;;14.38;90.08;97775.19;1728014;82;21809;-82
2021/07/04 00:47:36;;;;;;;17.48;10.98;;;;;;;14.31;89.83;97769.36;1725964;83;21002;-78
2021/07/04 00:50:04;;;;;;;14.45;10.00;;;;;;;14.26;90.03;97768.11;1726165;83;32543;-81
2021/07/04 00:52:30;;;;;;;16.17;11.38;;;;;;;14.22;89.71;97767.94;1726967;82;20963;-81
2021/07/04 00:54:56;;;;;;;14.95;11.25;;;;;;;14.20;89.80;97770.73;1727546;82;20955;-80
2021/07/04 00:57:22;;;;;;;15.10;10.40;;;;;;;14.22;89.84;97773.94;1726218;83;21068;-81
2021/07/04 00:59:48;;;;;;;14.53;11.20;;;;;;;14.29;89.87;97774.32;1726943;82;21501;-78
2021/07/04 01:02:13;;;;;;;14.15;10.20;;;;;;;14.30;90.46;97775.93;1726305;83;20967;-81
2021/07/04 01:04:39;;;;;;;16.32;10.00;;;;;;;14.27;91.43;97769.19;1730492;82;20847;-81
2021/07/04 01:07:06;;;;;;;13.08;10.08;;;;;;;14.26;90.50;97770.83;1727133;82;21025;-78
2021/07/04 01:09:32;;;;;;;13.98;10.48;;;;;;;14.24;89.77;97778.52;1726938;82;21063;-81
2021/07/04 01:11:58;;;;;;;13.65;9.63;;;;;;;14.18;91.33;97770.20;1726090;82;20910;-81
2021/07/04 01:14:24;;;;;;;13.72;9.20;;;;;;;14.21;91.35;97770.97;1706700;82;20875;-78
2021/07/04 01:16:50;;;;;;;13.53;9.45;;;;;;;14.21;91.15;97772.34;1726943;82;20955;-78
2021/07/04 01:19:16;;;;;;;13.08;10.23;;;;;;;14.17;90.80;97761.79;1706143;82;21375;-78
2021/07/04 01:21:44;;;;;;;13.35;10.95;;;;;;;14.12;90.38;97769.55;1726391;83;21182;-78
2021/07/04 01:24:11;;;;;;;14.65;10.75;;;;;;;14.04;91.15;97768.91;1726410;82;21340;-78
2021/07/04 01:26:38;;;;;;;13.13;11.28;;;;;;;13.97;90.80;97772.05;1726628;83;20971;-80
2021/07/04 01:29:04;;;;;;;11.75;9.10;;;;;;;13.91;90.79;97769.19;1726501;82;20947;-81
2021/07/04 01:31:31;;;;;;;11.88;9.05;;;;;;;13.91;90.04;97766.47;1727255;82;21474;-81
2021/07/04 01:33:57;;;;;;;13.28;10.03;;;;;;;13.85;90.11;97767.72;1730166;82;21107;-81
2021/07/04 01:36:23;;;;;;;12.25;9.50;;;;;;;13.82;90.48;97770.47;1726459;83;20914;-78
2021/07/04 01:38:50;;;;;;;13.18;9.43;;;;;;;13.80;90.12;97775.43;1726701;83;20896;-78
2021/07/04 01:41:16;;;;;;;12.60;9.85;;;;;;;13.75;89.98;97772.80;1705510;83;20967;-81
2021/07/04 01:43:42;;;;;;;14.20;10.25;;;;;;;13.71;90.10;97770.46;1726967;82;20994;-78
2021/07/04 01:46:08;;;;;;;12.40;9.00;;;;;;;13.67;91.03;97773.56;1726425;83;21839;-78
2021/07/04 01:48:34;;;;;;;13.25;9.03;;;;;;;13.72;89.96;97776.71;1727367;82;21022;-78
2021/07/04 01:51:00;;;;;;;11.30;8.93;;;;;;;13.64;90.52;97779.59;1726765;82;20927;-81
2021/07/04 01:53:26;;;;;;;11.68;8.85;;;;;;;13.63;90.19;97769.81;1727413;82;20899;-78
2021/07/04 01:55:52;;;;;;;11.25;8.85;;;;;;;13.53;91.95;97766.77;1726620;83;20959;-80
2021/07/04 01:58:18;;;;;;;12.30;9.75;;;;;;;13.51;91.54;97773.08;1726391;83;20914;-81
2021/07/04 02:00:44;;;;;;;16.15;9.33;;;;;;;13.52;92.42;97765.16;1726495;82;20839;-81
2021/07/04 02:03:11;;;;;;;12.65;9.55;;;;;;;13.55;91.67;97765.89;1727090;82;21002;-78
2021/07/04 02:05:37;;;;;;;12.20;9.60;;;;;;;13.57;91.30;97766.95;1726567;83;21427;-80
2021/07/04 02:08:05;;;;;;;14.75;9.85;;;;;;;13.55;91.59;97768.62;1727111;82;21065;-78
2021/07/04 02:10:33;;;;;;;13.30;10.08;;;;;;;13.54;91.58;97762.13;1727165;82;21376;-81
2021/07/04 02:12:59;;;;;;;12.65;8.70;;;;;;;13.55;91.40;97760.45;1726330;82;21420;-80
2021/07/04 02:15:30;;;;;;;11.73;9.25;;;;;;;13.52;91.88;97765.16;1726654;83;20959;-81
2021/07/04 02:17:56;;;;;;;12.10;9.15;;;;;;;13.52;91.06;97772.52;1726147;81;20967;-78
2021/07/04 02:20:39;;;;;;;10.28;8.78;;;;;;;13.43;90.54;97776.51;1726958;82;21057;-81
2021/07/04 02:23:09;;;;;;;10.88;9.00;;;;;;;13.32;90.25;97777.80;1723254;83;21443;-81
2021/07/04 02:25:36;;;;;;;14.10;9.70;;;;;;;13.30;90.11;97777.31;1726563;82;20986;-81
2021/07/04 02:28:06;;;;;;;9.70;8.43;;;;;;;13.25;90.12;97779.59;1726181;82;21022;-78
2021/07/04 02:30:33;;;;;;;14.15;8.15;;;;;;;13.23;89.98;97782.34;1727022;82;21042;-77
2021/07/04 02:33:02;;;;;;;13.15;8.55;;;;;;;13.21;90.74;97780.48;1726654;82;20911;-80
2021/07/04 02:35:30;;;;;;;11.73;8.75;;;;;;;13.14;92.70;97780.85;1728235;82;21233;-78
2021/07/04 02:37:56;;;;;;;;;;;;;;;13.18;91.77;97781.07;1728524;83;21355;-78
2021/07/04 02:40:22;;;;;;;10.82;8.63;;;;;;;13.15;91.30;97783.82;1726534;82;20462;-80
2021/07/04 02:42:49;;;;;;;13.88;8.78;;;;;;;13.13;90.75;97779.80;1727144;82;21521;-78
2021/07/04 02:45:16;;;;;;;11.48;9.00;;;;;;;13.08;91.87;97778.55;1726650;82;20952;-80
2021/07/04 02:47:41;;;;;;;10.82;9.38;;;;;;;13.09;91.86;97782.33;1726366;83;21418;-78
2021/07/04 02:50:08;;;;;;;13.15;9.13;;;;;;;13.11;91.35;97784.73;1726088;83;20883;-81
2021/07/04 02:52:35;;;;;;;12.23;8.53;;;;;;;13.11;92.20;97782.83;1726243;83;21044;-81
2021/07/04 02:55:01;;;;;;;11.33;9.53;;;;;;;13.14;92.18;97784.93;1727612;82;20943;-81
2021/07/04 02:57:27;;;;;;;10.80;8.18;;;;;;;13.15;92.38;97785.17;1726234;82;20960;-81
2021/07/04 02:59:53;;;;;;;12.82;9.68;;;;;;;13.17;91.41;97788.42;1726840;82;20867;-78
2021/07/04 03:02:20;;;;;;;11.50;9.15;;;;;;;13.13;92.63;97790.13;1730415;82;20836;-78
2021/07/04 03:04:49;;;;;;;16.62;8.83;;;;;;;13.18;90.98;97791.40;1705773;82;20907;-81
2021/07/04 03:07:15;;;;;;;;;;;;;;;13.12;91.00;97793.95;1708174;82;21411;-79
2021/07/04 03:09:42;;;;;;;13.78;10.18;;;;;;;13.03;92.09;97788.97;1726629;82;20202;-79
2021/07/04 03:12:09;;;;;;;14.25;8.90;;;;;;;13.05;91.81;97798.98;1726939;82;21680;-81
2021/07/04 03:14:35;;;;;;;11.10;9.05;;;;;;;13.08;91.87;97802.48;1726738;82;21427;-79
2021/07/04 03:17:01;;;;;;;17.25;10.05;;;;;;;13.08;91.55;97794.88;1726718;82;20998;-80
2021/07/04 03:19:27;;;;;;;14.13;9.55;;;;;;;13.04;91.84;97798.73;1705547;82;20962;-81
2021/07/04 03:21:53;;;;;;;12.93;10.32;;;;;;;13.09;91.72;97797.84;1726084;83;21011;-79
2021/07/04 03:24:19;;;;;;;16.17;11.50;;;;;;;13.15;91.13;97799.34;1726250;83;21164;-81
2021/07/04 03:26:45;;;;;;;15.58;10.18;;;;;;;13.22;90.33;97800.58;1727262;82;20967;-79
2021/07/04 03:29:10;;;;;;;13.58;10.45;;;;;;;13.28;90.08;97796.41;1726119;83;20848;-79
2021/07/04 03:31:36;;;;;;;13.30;9.65;;;;;;;13.34;89.76;97799.30;1726178;83;20879;-81
2021/07/04 03:34:02;;;;;;;18.87;11.50;;;;;;;13.35;89.77;97801.71;1726440;83;20847;-79
2021/07/04 03:36:28;;;;;;;13.20;9.68;;;;;;;13.44;90.43;97809.97;1726341;83;21266;-79
2021/07/04 03:38:54;;;;;;;12.58;10.18;;;;;;;13.54;89.56;97812.48;1726286;83;20840;-79
2021/07/04 03:41:20;;;;;;;14.13;11.43;;;;;;;13.61;89.52;97816.97;1729206;82;21584;-81
2021/07/04 03:43:46;;;;;;;15.65;11.33;;;;;;;13.64;88.96;97816.91;1726486;83;20891;-81
2021/07/04 03:46:13;;;;;;;15.63;11.78;;;;;;;13.69;88.72;97814.89;1726365;83;20943;-81
2021/07/04 03:48:40;;;;;;;13.65;10.60;;;;;;;13.73;88.26;97812.36;1726004;83;21162;-79
2021/07/04 03:51:06;;;;;;;14.00;10.50;;;;;;;13.77;88.00;97806.01;1726551;82;20959;-79
2021/07/04 03:53:31;;;;;;;13.78;10.10;;;;;;;13.82;87.59;97807.80;1726483;82;20867;-81
2021/07/04 03:55:57;;;;;;;26.40;11.22;;;;;;;13.77;87.13;97812.02;1726150;83;20930;-81
2021/07/04 03:58:23;;;;;;;13.70;9.13;;;;;;;13.71;87.77;97814.02;1727046;82;21010;-82
2021/07/04 04:00:49;;;;;;;14.05;9.43;;;;;;;13.70;88.51;97817.86;1726568;83;21291;-79
2021/07/04 04:03:15;;;;;;;10.50;8.73;;;;;;;13.65;88.10;97819.88;1705150;83;20997;-81
2021/07/04 04:05:41;;;;;;;12.37;9.15;;;;;;;13.52;88.47;97826.95;1726413;82;21022;-79
2021/07/04 04:08:07;;;;;;;13.38;7.87;;;;;;;13.47;88.57;97828.41;1726373;82;20867;-79
2021/07/04 04:10:34;;;;;;;10.90;8.68;;;;;;;13.46;88.15;97828.97;1726760;82;21077;-79
2021/07/04 04:13:01;;;;;;;14.05;9.33;;;;;;;13.48;88.48;97820.49;1726184;82;22029;-79
2021/07/04 04:15:27;;;;;;;12.70;10.28;;;;;;;13.53;88.86;97821.77;1706551;83;20955;-81
2021/07/04 04:17:56;;;;;;;11.60;9.80;;;;;;;13.72;88.03;97833.33;1727185;80;20979;-82
2021/07/04 04:20:21;;;;;;;14.38;10.10;;;;;;;13.80;87.43;97829.09;1729062;82;21022;-79
2021/07/04 04:22:47;;;;;;;13.68;11.45;;;;;;;13.87;87.12;97821.87;1726190;83;20863;-82
2021/07/04 04:25:13;;;;;;;17.62;11.35;;;;;;;13.92;87.45;97823.11;1726817;83;20936;-79
2021/07/04 04:27:39;;;;;;;11.93;10.45;;;;;;;14.04;87.09;97822.04;1726675;82;21539;-81
2021/07/04 04:30:07;;;;;;;15.72;10.35;;;;;;;14.19;87.51;97818.17;1726613;83;20958;-81
2021/07/04 04:32:33;;;;;;;18.50;10.03;;;;;;;14.30;87.39;97820.34;1726359;83;21054;-82
2021/07/04 04:34:59;;;;;;;15.05;10.80;;;;;;;14.39;87.08;97814.95;1726542;82;21629;-79
2021/07/04 04:37:25;;;;;;;12.05;9.10;;;;;;;14.57;86.91;97821.37;1726519;82;21100;-81
2021/07/04 04:39:51;;;;;;;14.10;9.63;;;;;;;14.78;86.43;97817.00;1726702;83;20879;-81
2021/07/04 04:42:18;;;;;;;12.28;9.83;;;;;;;14.92;85.71;97818.30;1726421;83;20959;-79
2021/07/04 04:44:44;;;;;;;12.95;10.10;;;;;;;15.06;85.09;97816.86;1727389;82;20844;-79
2021/07/04 04:47:10;;;;;;;13.03;9.80;;;;;;;15.12;84.51;97821.84;1726814;82;20859;-81
2021/07/04 04:49:36;;;;;;;14.87;8.65;;;;;;;15.26;84.29;97820.95;1726341;83;21387;-82
2021/07/04 04:52:04;;;;;;;17.23;11.00;;;;;;;15.33;83.81;97817.21;1726190;83;21030;-79
2021/07/04 04:54:30;;;;;;;10.68;8.20;;;;;;;15.48;83.37;97814.06;1727321;82;21333;-82
2021/07/04 04:56:56;;;;;;;12.53;9.28;;;;;;;15.60;83.37;97816.98;1726273;83;20940;-82
2021/07/04 04:59:22;;;;;;;13.95;9.53;;;;;;;15.76;82.70;97814.08;1727377;82;20935;-82
2021/07/04 05:01:48;;;;;;;10.68;9.35;;;;;;;15.87;82.47;97806.95;1726485;82;21302;-82
2021/07/04 05:04:14;;;;;;;14.13;9.78;;;;;;;16.02;82.27;97803.75;1727420;82;21541;-79
2021/07/04 05:06:42;;;;;;;11.10;9.35;;;;;;;16.08;81.83;97799.75;1730213;82;20852;-79
2021/07/04 05:09:08;;;;;;;15.20;10.03;;;;;;;16.19;81.13;97796.93;1727115;82;21328;-79
2021/07/04 05:11:34;;;;;;;12.37;9.33;;;;;;;16.26;81.22;97797.27;1726745;83;21459;-82
2021/07/04 05:14:00;;;;;;;16.05;9.90;;;;;;;16.38;80.83;97797.16;1726627;83;21197;-80
2021/07/04 05:16:26;;;;;;;13.48;9.40;;;;;;;16.50;80.50;97791.87;1726390;82;20934;-79
2021/07/04 05:18:52;;;;;;;10.95;9.78;;;;;;;16.63;80.61;97788.93;1740219;80;20953;-79
2021/07/04 05:21:18;;;;;;;14.25;10.70;;;;;;;16.84;80.89;97789.09;1762722;80;20883;-79
2021/07/04 05:23:43;;;;;;;17.50;11.55;;;;;;;16.93;79.13;97795.11;1763112;80;20946;-82
2021/07/04 05:26:09;;;;;;;13.20;11.73;;;;;;;17.15;79.50;97793.49;1763010;81;21161;-79
2021/07/04 05:28:35;;;;;;;15.80;11.63;;;;;;;17.04;79.37;97792.25;1762764;80;20871;-82
2021/07/04 05:31:02;;;;;;;12.98;10.48;;;;;;;17.09;79.43;97794.26;1762680;81;20887;-80
2021/07/04 05:33:28;;;;;;;16.32;10.95;;;;;;;17.24;79.26;97788.78;1763012;80;21308;-80
2021/07/04 05:35:54;;;;;;;13.43;10.85;;;;;;;17.41;78.72;97789.27;1763063;81;20918;-79
2021/07/04 05:38:21;;;;;;;14.40;10.63;;;;;;;17.54;78.25;97786.88;1762960;80;21851;-82
2021/07/04 05:40:48;;;;;;;21.17;9.90;;;;;;;17.61;76.24;97789.11;1742187;81;21002;-81
2021/07/04 05:43:15;;;;;;;11.65;9.65;;;;;;;17.65;76.17;97793.58;1766449;81;21398;-79
2021/07/04 05:45:41;;;;;;;14.78;10.68;;;;;;;17.83;76.98;97787.45;1762749;81;21017;-79
2021/07/04 05:48:07;;;;;;;14.05;12.05;;;;;;;18.00;76.38;97790.65;1762748;81;21501;-81
2021/07/04 05:50:33;;;;;;;13.50;9.80;;;;;;;18.18;76.46;97790.75;1763328;80;21144;-81
2021/07/04 05:52:59;;;;;;;11.65;9.68;;;;;;;18.40;76.33;97788.24;1762934;81;20918;-79
2021/07/04 05:55:25;;;;;;;14.03;10.85;;;;;;;18.55;74.83;97791.74;1763878;80;21584;-81
2021/07/04 05:57:51;;;;;;;14.73;10.40;;;;;;;18.52;74.86;97790.22;1762865;81;21053;-81
2021/07/04 06:00:18;;;;;;;14.98;9.33;;;;;;;18.56;73.77;97793.91;1763126;80;20910;-80
2021/07/04 06:02:44;;;;;;;10.48;8.65;;;;;;;18.75;73.55;97788.74;1763074;80;21105;-82
2021/07/04 06:05:13;;;;;;;10.68;8.35;;;;;;;18.70;73.35;97786.77;1762996;81;20871;-80
2021/07/04 06:07:39;;;;;;;11.38;8.55;;;;;;;18.69;74.65;97787.34;1762934;79;21331;-81
2021/07/04 06:10:06;;;;;;;10.60;8.18;;;;;;;18.91;73.77;97790.28;1763159;81;20963;-80
2021/07/04 06:12:32;;;;;;;11.80;9.03;;;;;;;19.15;73.09;97783.47;1762959;81;21013;-81
2021/07/04 06:14:57;;;;;;;14.00;10.15;;;;;;;19.30;73.93;97787.47;1763248;80;20878;-80
2021/07/04 06:17:23;;;;;;;12.50;9.70;;;;;;;19.52;73.16;97782.68;1762981;80;20856;-79
2021/07/04 06:19:49;;;;;;;12.70;8.28;;;;;;;19.57;71.14;97781.91;1768744;80;20823;-80
2021/07/04 06:22:15;;;;;;;10.53;8.88;;;;;;;19.74;71.18;97780.88;1765498;80;20919;-81
2021/07/04 06:24:41;;;;;;;12.53;8.40;;;;;;;19.85;70.84;97784.75;1744014;81;20875;-79
2021/07/04 06:27:07;;;;;;;11.60;8.63;;;;;;;19.93;70.81;97787.94;1765292;81;21054;-79
2021/07/04 06:29:33;;;;;;;13.75;8.65;;;;;;;20.04;69.74;97780.01;1765650;81;20945;-79
2021/07/04 06:31:59;;;;;;;12.37;8.85;;;;;;;20.22;69.17;97778.58;1765349;81;20859;-80
2021/07/04 06:34:25;;;;;;;11.60;8.85;;;;;;;20.27;68.87;97787.98;1765695;81;20914;-81
2021/07/04 06:36:51;;;;;;;11.43;8.58;;;;;;;20.50;68.93;97782.75;1765435;80;20934;-79
2021/07/04 06:39:17;;;;;;;13.40;8.23;;;;;;;20.67;68.04;97784.39;1765225;81;21064;-82
2021/07/04 06:41:43;;;;;;;12.70;8.53;;;;;;;20.81;67.64;97786.17;1765476;81;20874;-79
2021/07/04 06:44:09;;;;;;;10.88;8.40;;;;;;;21.09;67.67;97783.94;1765422;81;20875;-81
2021/07/04 06:46:35;;;;;;;15.43;9.68;;;;;;;21.31;66.51;97786.70;1765215;81;20970;-80
2021/07/04 06:49:01;;;;;;;11.53;8.90;;;;;;;21.43;64.90;97787.18;1765093;81;21517;-81
2021/07/04 06:51:28;;;;;;;11.45;7.75;;;;;;;21.38;65.54;97785.51;1765229;81;21160;-81
2021/07/04 06:53:54;;;;;;;13.20;8.88;;;;;;;21.40;64.38;97788.70;1769008;81;21414;-82
2021/07/04 06:56:20;;;;;;;13.90;8.63;;;;;;;21.54;63.92;97793.77;1765557;80;20898;-80
2021/07/04 06:58:47;;;;;;;11.85;9.40;;;;;;;21.59;65.05;97788.77;1765600;81;20907;-82
2021/07/04 07:01:13;;;;;;;12.98;9.33;;;;;;;21.82;65.12;97783.98;1765647;81;21489;-81
2021/07/04 07:03:39;;;;;;;13.68;9.40;;;;;;;21.79;62.03;97783.31;1765375;81;21750;-81
2021/07/04 07:06:05;;;;;;;11.85;8.28;;;;;;;21.75;62.71;97782.44;1744440;81;20923;-80
2021/07/04 07:08:31;;;;;;;12.68;8.23;;;;;;;21.90;62.77;97787.12;1765528;80;21077;-81
2021/07/04 07:10:57;;;;;;;11.35;7.78;;;;;;;22.01;62.25;97783.22;1765831;80;21001;-79
2021/07/04 07:13:23;;;;;;;12.93;9.55;;;;;;;22.14;62.74;97784.16;1765667;81;20860;-81
2021/07/04 07:15:49;;;;;;;11.03;8.33;;;;;;;22.19;62.21;97780.30;1765632;81;21302;-81
2021/07/04 07:18:15;;;;;;;11.33;8.93;;;;;;;22.35;62.17;97785.77;1765817;80;20831;-81
2021/07/04 07:20:41;;;;;;;11.93;9.43;;;;;;;22.39;61.08;97783.86;1765393;80;20977;-79
2021/07/04 07:23:07;;;;;;;12.47;9.15;;;;;;;22.44;61.02;97782.20;1765591;81;20947;-81
2021/07/04 07:25:33;;;;;;;9.88;8.08;;;;;;;22.60;58.05;97784.89;1765543;81;21003;-82
2021/07/04 07:27:59;;;;;;;12.15;9.93;;;;;;;22.62;60.24;97784.73;1765430;81;21109;-80
2021/07/04 07:30:25;;;;;;;12.95;8.93;;;;;;;22.60;59.56;97785.69;1766019;80;21058;-82
2021/07/04 07:32:51;;;;;;;16.10;9.45;;;;;;;22.37;58.36;97783.44;1765556;81;21013;-80
2021/07/04 07:35:18;;;;;;;10.98;7.70;;;;;;;22.56;60.02;97784.84;1765620;81;21446;-80
2021/07/04 07:37:45;;;;;;;10.90;8.15;;;;;;;22.74;59.11;97783.80;1765305;81;21411;-80
2021/07/04 07:40:12;;;;;;;11.15;7.87;;;;;;;23.12;58.74;97778.00;1765685;80;21706;-80
2021/07/04 07:42:37;;;;;;;8.50;6.55;;;;;;;23.37;56.09;97779.23;1765248;80;21042;-80
2021/07/04 07:45:05;;;;;;;9.48;7.42;;;;;;;23.34;51.75;97776.63;1765742;81;20913;-82
2021/07/04 07:47:31;;;;;;;9.48;7.40;;;;;;;23.74;53.47;97778.06;1765351;81;20986;-80
2021/07/04 07:50:03;;;;;;;9.65;7.12;;;;;;;23.92;51.67;97772.20;1765524;80;20872;-82
2021/07/04 07:52:29;;;;;;;9.98;6.55;;;;;;;23.72;51.95;97772.11;1765738;81;21871;-81
2021/07/04 07:54:55;;;;;;;9.75;6.83;;;;;;;23.98;52.10;97767.16;1765717;81;20843;-79
2021/07/04 07:57:21;;;;;;;8.43;6.40;;;;;;;24.00;52.15;97770.93;1765134;81;21021;-79
2021/07/04 07:59:49;;;;;;;12.63;6.40;;;;;;;23.80;48.98;97769.67;1765550;80;21394;-82
2021/07/04 08:02:16;;;;;;;14.68;6.20;;;;;;;24.18;48.69;97767.26;1765536;81;20974;-80
2021/07/04 08:04:42;;;;;;;8.45;7.00;;;;;;;24.70;45.99;97759.21;1765108;81;21822;-81
2021/07/04 08:07:08;;;;;;;8.18;5.40;;;;;;;25.21;48.19;97752.42;1765096;81;20904;-82
2021/07/04 08:09:34;;;;;;;6.47;5.20;;;;;;;25.80;47.03;97754.67;1765014;81;20859;-80
2021/07/04 08:12:00;;;;;;;8.38;5.35;;;;;;;26.08;44.94;97749.91;1765123;81;20899;-81
2021/07/04 08:14:26;;;;;;;8.13;5.20;;;;;;;26.25;42.17;97747.02;1765122;80;20962;-82
2021/07/04 08:16:51;;;;;;;8.10;5.55;;;;;;;26.38;43.11;97748.27;1765167;80;22006;-81
2021/07/04 08:19:17;;;;;;;9.15;5.65;;;;;;;25.92;42.12;97745.25;1768484;79;21544;-83
2021/07/04 08:21:43;;;;;;;8.70;5.87;;;;;;;26.60;43.44;97743.60;1764990;81;21525;-81
2021/07/04 08:24:09;;;;;;;10.20;5.40;;;;;;;26.40;42.03;97738.95;1743035;81;21456;-83
2021/07/04 08:26:35;;;;;;;6.97;4.90;;;;;;;26.91;41.63;97744.06;1765154;81;22403;-81
2021/07/04 08:29:01;;;;;;;24.37;5.47;;;;;;;27.03;40.53;97734.00;1765097;81;21325;-81
2021/07/04 08:31:28;;;;;;;7.12;5.25;;;;;;;26.65;39.75;97735.47;1765037;81;20854;-80
2021/07/04 08:33:54;;;;;;;12.13;6.33;;;;;;;26.79;39.71;97739.67;1764947;81;21004;-82
2021/07/04 08:36:20;;;;;;;6.83;5.70;;;;;;;26.91;40.21;97735.72;1765036;81;20835;-83
2021/07/04 08:38:46;;;;;;;7.25;4.83;;;;;;;27.59;39.95;97742.14;1765035;81;20923;-81
2021/07/04 08:41:13;;;;;;;6.87;5.03;;;;;;;27.94;39.52;97732.97;1765191;80;20859;-81
2021/07/04 08:43:39;;;;;;;6.78;4.75;;;;;;;27.90;37.12;97743.92;1742990;81;20920;-82
2021/07/04 08:46:05;;;;;;;8.50;5.42;;;;;;;27.47;37.43;97734.21;1765168;81;20932;-83
2021/07/04 08:48:34;;;;;;;10.20;4.95;;;;;;;28.30;37.32;97728.13;1764874;81;20989;-81
2021/07/04 08:51:00;;;;;;;6.95;4.60;;;;;;;28.68;38.61;97731.72;1765080;81;20959;-82
2021/07/04 08:53:26;;;;;;;6.75;5.17;;;;;;;28.99;37.33;97729.98;1764948;81;21008;-81
2021/07/04 08:55:52;;;;;;;5.70;4.97;;;;;;;29.32;34.73;97725.16;1765167;80;21005;-83
2021/07/04 08:58:21;;;;;;;7.30;4.90;;;;;;;28.49;35.22;97735.80;1764903;81;20930;-83
2021/07/04 09:01:14;;;;;;;7.17;5.05;;;;;;;28.24;35.35;97731.70;1765084;80;20959;-84
2021/07/04 09:03:43;;;;;;;8.90;5.10;;;;;;;28.44;36.06;97733.42;1743774;81;20947;-81
2021/07/04 09:06:09;;;;;;;6.37;5.12;;;;;;;29.26;35.68;97724.60;1765028;81;21237;-81
2021/07/04 09:08:37;;;;;;;7.78;5.25;;;;;;;29.89;35.35;97718.26;1743373;81;20938;-82
2021/07/04 09:11:18;;;;;;;7.33;4.10;;;;;;;30.22;32.07;97717.52;1765303;81;21379;-83
2021/07/04 09:13:46;;;;;;;6.10;4.28;;;;;;;30.02;32.31;97724.91;1764946;80;21041;-81
2021/07/04 09:16:15;;;;;;;5.22;4.72;;;;;;;30.42;31.96;97726.64;1765019;80;20953;-82
2021/07/04 09:18:41;;;;;;;5.37;4.70;;;;;;;30.20;32.31;97717.75;1764995;81;21944;-83
2021/07/04 09:21:23;;;;;;;5.60;4.53;;;;;;;30.20;32.31;97717.75;1774070;80;20939;-82
2021/07/04 09:23:50;;;;;;;7.90;4.92;;;;;;;29.83;31.06;97717.14;1776178;80;20955;-84
2021/07/04 09:26:40;;;;;;;6.87;4.70;;;;;;;30.35;30.96;97706.59;1776474;80;21060;-81
2021/07/04 09:29:07;;;;;;;8.45;4.35;;;;;;;29.81;33.36;97702.78;1776092;80;21005;-82
2021/07/04 09:31:33;;;;;;;5.55;3.95;;;;;;;30.73;31.24;97704.50;1776092;80;21296;-80
2021/07/04 09:34:05;;;;;;;6.10;4.90;;;;;;;31.47;32.01;97705.98;1748457;80;20902;-81
2021/07/04 09:36:31;;;;;;;5.47;4.80;;;;;;;31.92;30.66;97709.79;1776183;80;20985;-81
2021/07/04 09:38:57;;;;;;;8.05;4.70;;;;;;;32.22;30.89;97706.80;1776193;80;20960;-81
2021/07/04 09:41:23;;;;;;;6.65;4.20;;;;;;;32.20;27.89;97698.63;1749212;80;21406;-83
2021/07/04 09:43:50;;;;;;;5.20;4.15;;;;;;;32.98;28.95;97702.57;1776158;80;21992;-83
2021/07/04 09:46:17;;;;;;;6.67;5.12;;;;;;;32.04;27.84;97703.53;1775543;80;21316;-83
2021/07/04 09:48:48;;;;;;;7.00;5.10;;;;;;;33.30;29.42;97700.40;1776075;80;21422;-84
2021/07/04 09:51:23;;;;;;;6.90;4.90;;;;;;;31.87;27.78;97699.86;1775450;79;20953;-83
2021/07/04 09:53:58;;;;;;;6.60;4.47;;;;;;;32.42;27.91;97701.81;1776313;80;20954;-84
2021/07/04 09:56:32;;;;;;;6.62;4.40;;;;;;;32.63;28.47;97694.94;1775879;80;21141;-83
2021/07/04 09:59:01;;;;;;;4.85;4.33;;;;;;;32.72;26.80;97688.12;1776034;80;20970;-84
2021/07/04 10:01:46;;;;;;;6.47;4.10;;;;;;;32.32;28.09;97698.02;1774874;80;20947;-82
2021/07/04 10:04:36;;;;;;;5.03;3.98;;;;;;;33.04;27.77;97688.81;1776212;80;20930;-83
2021/07/04 10:07:00;;;;;;;11.08;5.53;;;;;;;32.68;27.29;97686.81;1776397;80;20954;-83
2021/07/04 10:09:29;;;;;;;10.68;4.37;;;;;;;32.76;27.15;97685.42;1776297;80;21157;-82
2021/07/04 10:11:54;;;;;;;;;;;;;;;32.19;27.28;97688.02;1779016;80;20891;-81
2021/07/04 10:14:20;;;;;;;7.28;5.42;;;;;;;32.63;27.77;97686.53;1776319;80;20266;-83
2021/07/04 10:16:47;;;;;;;4.75;3.87;;;;;;;33.43;26.63;97672.45;1776026;80;20893;-82
2021/07/04 10:19:23;;;;;;;4.37;3.95;;;;;;;33.89;26.06;97667.02;1748569;80;21398;-81
2021/07/04 10:21:52;;;;;;;4.75;3.83;;;;;;;32.58;26.73;97669.63;1765268;80;21804;-82
2021/07/04 10:24:18;;;;;;;6.83;5.03;;;;;;;33.98;25.51;97657.94;1764669;81;20920;-81
2021/07/04 10:26:44;;;;;;;4.87;3.50;;;;;;;34.52;25.48;97654.36;1765041;81;20855;-83
2021/07/04 10:29:10;;;;;;;4.87;3.92;;;;;;;35.02;25.25;97653.61;1765203;81;20874;-83
2021/07/04 10:31:37;;;;;;;4.85;3.90;;;;;;;33.34;24.73;97644.18;1769304;80;21441;-81
2021/07/04 10:34:12;;;;;;;4.43;3.53;;;;;;;32.67;26.38;97651.58;1765290;81;21149;-81
2021/07/04 10:36:59;;;;;;;4.15;3.75;;;;;;;33.42;24.94;97644.81;1764621;81;21620;-82
2021/07/04 10:39:27;;;;;;;5.85;3.35;;;;;;;32.84;26.37;97638.40;1764999;81;21006;-81
2021/07/04 10:41:56;;;;;;;4.87;3.72;;;;;;;34.31;25.75;97627.66;1765148;81;20971;-82
2021/07/04 10:44:48;;;;;;;5.80;3.90;;;;;;;35.49;24.63;97631.75;1764951;80;21017;-82
2021/07/04 10:47:23;;;;;;;5.70;3.70;;;;;;;36.12;23.31;97630.70;1764496;81;21329;-82
2021/07/04 10:50:08;;;;;;;6.47;4.03;;;;;;;35.83;23.20;97620.30;1768941;80;20904;-82
2021/07/04 10:52:39;;;;;;;4.17;3.50;;;;;;;35.67;24.02;97627.52;1765074;81;21410;-81
2021/07/04 10:55:12;;;;;;;5.97;4.37;;;;;;;36.33;22.40;97629.11;1765139;81;20999;-82
2021/07/04 10:57:58;;;;;;;5.97;4.37;;;;;;;35.77;22.41;97631.36;1764934;81;21327;-82
2021/07/04 11:00:26;;;;;;;5.08;3.60;;;;;;;34.67;24.76;97622.37;1764533;81;21153;-81
2021/07/04 11:02:57;;;;;;;4.87;4.25;;;;;;;35.27;23.97;97617.58;1743358;81;21624;-83
2021/07/04 11:05:39;;;;;;;4.53;3.60;;;;;;;34.05;24.81;97614.17;1765221;81;21021;-82
2021/07/04 11:08:11;;;;;;;5.05;4.08;;;;;;;32.94;25.72;97615.52;1764869;81;21367;-83
2021/07/04 11:10:59;;;;;;;6.47;3.92;;;;;;;35.38;24.20;97605.16;1765302;81;20911;-84
2021/07/04 11:13:29;;;;;;;3.62;3.33;;;;;;;33.69;24.37;97605.95;1765109;81;21083;-83
2021/07/04 11:16:18;;;;;;;5.40;4.05;;;;;;;33.83;24.10;97600.53;1764290;81;20978;-83
2021/07/04 11:18:49;;;;;;;4.95;3.75;;;;;;;33.59;24.75;97600.02;1743611;81;21097;-83
2021/07/04 11:21:19;;;;;;;6.37;3.80;;;;;;;33.64;24.00;97598.84;1765000;80;21459;-82
2021/07/04 11:23:45;;;;;;;6.40;4.03;;;;;;;32.72;25.65;97611.00;1765118;81;21062;-83
2021/07/04 11:26:15;;;;;;;5.62;4.70;;;;;;;30.58;27.74;97604.62;1765261;80;21070;-83
2021/07/04 11:28:47;;;;;;;6.75;4.35;;;;;;;29.66;28.96;97605.25;1765035;81;20892;-83